Time;durP1;ratioP1;P1;durP2;ratioP2;P2;SDS_P1;SDS_P2;PMS_P1;PMS_P2;Temp;Humidity;BMP_temperature;BMP_pressure;BME280_temperature;BME280_humidity;BME280_pressure;Samples;Min_cycle;Max_cycle;Signal;HPM_P1;HPM_P2
2022/06/21 00:01:02;;;;;;;12.50;4.00;;;10.10;76.20;;;;;;4946072;29;20412;-73
2022/06/21 00:03:30;;;;;;;11.43;3.92;;;9.90;76.30;;;;;;4950538;29;20047;-73
2022/06/21 00:05:58;;;;;;;9.38;3.25;;;9.90;76.50;;;;;;4938590;29;20043;-73
2022/06/21 00:08:32;;;;;;;9.55;3.70;;;9.80;76.60;;;;;;4912715;29;20486;-72
2022/06/21 00:11:01;;;;;;;11.68;3.80;;;9.80;76.90;;;;;;4950483;28;20058;-72
2022/06/21 00:13:32;;;;;;;10.98;4.28;;;9.80;77.00;;;;;;4944909;29;20977;-72
2022/06/21 00:16:05;;;;;;;11.50;3.92;;;9.70;77.20;;;;;;4947036;29;20055;-73
2022/06/21 00:18:36;;;;;;;15.98;4.90;;;9.70;77.40;;;;;;4935071;29;20421;-73
2022/06/21 00:21:09;;;;;;;10.82;4.70;;;9.70;77.60;;;;;;4936349;29;20073;-73
2022/06/21 00:23:37;;;;;;;10.07;4.70;;;9.70;77.70;;;;;;4933847;29;20047;-73
2022/06/21 00:26:04;;;;;;;12.98;4.47;;;9.60;77.90;;;;;;4949114;29;20058;-73
2022/06/21 00:28:32;;;;;;;10.73;4.75;;;9.60;78.00;;;;;;4953970;29;20054;-73
2022/06/21 00:31:00;;;;;;;11.90;4.43;;;9.60;78.00;;;;;;4948118;29;20051;-73
2022/06/21 00:33:29;;;;;;;9.25;4.50;;;9.60;78.20;;;;;;4950986;29;20047;-72
2022/06/21 00:36:01;;;;;;;10.73;4.65;;;9.50;78.30;;;;;;4951908;29;20074;-72
2022/06/21 00:38:32;;;;;;;9.93;4.20;;;9.50;78.40;;;;;;4946358;29;20047;-72
2022/06/21 00:41:05;;;;;;;15.18;4.90;;;9.40;78.50;;;;;;4951114;29;20047;-73
2022/06/21 00:43:39;;;;;;;14.93;4.60;;;9.40;78.60;;;;;;4947947;29;20051;-73
2022/06/21 00:46:26;;;;;;;12.40;4.20;;;9.30;78.80;;;;;;4950001;29;20624;-74
2022/06/21 00:48:55;;;;;;;8.32;4.35;;;9.30;79.10;;;;;;4948373;29;20039;-74
2022/06/21 00:51:33;;;;;;;11.35;4.93;;;9.30;78.90;;;;;;4948231;29;20382;-74
2022/06/21 00:54:29;;;;;;;10.00;4.38;;;9.30;79.20;;;;;;4936125;29;20071;-74
2022/06/21 00:57:05;;;;;;;12.30;4.20;;;9.40;79.60;;;;;;4950562;29;20047;-73
2022/06/21 00:59:34;;;;;;;9.65;3.97;;;9.30;79.40;;;;;;4945484;29;20586;-73
2022/06/21 01:02:16;;;;;;;9.32;3.80;;;9.30;79.30;;;;;;4948852;29;20058;-73
2022/06/21 01:04:48;;;;;;;9.93;4.27;;;9.30;79.40;;;;;;4953197;29;20039;-73
2022/06/21 01:07:16;;;;;;;8.25;4.38;;;9.30;79.40;;;;;;4941768;29;20070;-73
2022/06/21 01:09:56;;;;;;;9.70;3.85;;;9.30;79.50;;;;;;4946551;29;20402;-73
2022/06/21 01:12:49;;;;;;;9.95;4.32;;;9.20;79.70;;;;;;4951906;29;20047;-73
2022/06/21 01:15:23;;;;;;;8.02;3.80;;;9.20;80.10;;;;;;4952688;29;20457;-73
2022/06/21 01:17:56;;;;;;;9.13;4.03;;;9.30;80.10;;;;;;4950498;29;20470;-73
2022/06/21 01:20:27;;;;;;;8.15;3.50;;;9.30;80.00;;;;;;4941099;29;20047;-73
2022/06/21 01:23:38;;;;;;;6.50;3.45;;;9.20;80.10;;;;;;4949501;28;20074;-74
2022/06/21 01:26:35;;;;;;;8.73;4.25;;;9.30;80.20;;;;;;4920274;29;20055;-73
2022/06/21 01:29:06;;;;;;;7.97;4.22;;;9.30;80.20;;;;;;4949399;29;20058;-73
2022/06/21 01:31:34;;;;;;;17.55;5.72;;;9.30;80.10;;;;;;4949970;29;20062;-73
2022/06/21 01:34:01;;;;;;;15.88;4.30;;;9.30;80.10;;;;;;4949497;29;20051;-74
2022/06/21 01:36:35;;;;;;;18.30;4.93;;;9.30;80.20;;;;;;4942796;29;20052;-74
2022/06/21 01:39:09;;;;;;;14.82;4.88;;;9.30;80.30;;;;;;4952373;29;20047;-73
2022/06/21 01:41:43;;;;;;;12.20;4.82;;;9.20;80.30;;;;;;4949668;29;20054;-73
2022/06/21 01:44:18;;;;;;;9.02;4.50;;;9.20;80.40;;;;;;4950335;29;20062;-73
2022/06/21 01:46:46;;;;;;;8.05;4.38;;;9.10;80.50;;;;;;4951606;29;20055;-74
2022/06/21 01:49:19;;;;;;;12.23;3.97;;;9.10;80.60;;;;;;4951376;28;20051;-74
2022/06/21 01:51:57;;;;;;;8.18;3.72;;;9.00;80.70;;;;;;4942254;29;20047;-74
2022/06/21 01:54:30;;;;;;;11.95;4.15;;;9.00;80.80;;;;;;4952409;29;21824;-73
2022/06/21 01:56:58;;;;;;;10.52;4.47;;;9.00;80.90;;;;;;4952873;29;20462;-74
2022/06/21 01:59:30;;;;;;;13.32;5.53;;;8.90;80.90;;;;;;4951222;29;20039;-73
2022/06/21 02:02:11;;;;;;;16.70;6.10;;;9.00;81.10;;;;;;4953354;29;20078;-74
2022/06/21 02:05:08;;;;;;;20.85;6.53;;;9.00;81.30;;;;;;4952373;29;20055;-74
2022/06/21 02:07:42;;;;;;;19.05;5.07;;;9.00;81.30;;;;;;4940838;29;20048;-74
2022/06/21 02:10:10;;;;;;;13.20;4.82;;;9.00;81.20;;;;;;4943267;29;20489;-74
2022/06/21 02:12:52;;;;;;;13.68;4.35;;;8.90;81.20;;;;;;4950900;29;20055;-74
2022/06/21 02:15:29;;;;;;;11.52;4.10;;;8.90;81.40;;;;;;4939806;29;20056;-73
2022/06/21 02:17:59;;;;;;;10.00;4.40;;;8.90;81.40;;;;;;4947974;29;20432;-74
2022/06/21 02:20:50;;;;;;;10.02;4.50;;;8.80;81.50;;;;;;4948382;29;20047;-73
2022/06/21 02:23:20;;;;;;;12.50;4.88;;;8.80;81.80;;;;;;4929873;29;20437;-74
2022/06/21 02:25:54;;;;;;;12.80;4.40;;;8.80;81.80;;;;;;4947986;29;20047;-73
2022/06/21 02:28:23;;;;;;;14.02;5.13;;;8.80;81.90;;;;;;4951319;29;20055;-74
2022/06/21 02:30:53;;;;;;;15.50;4.63;;;8.80;82.00;;;;;;4947975;29;20485;-74
2022/06/21 02:33:23;;;;;;;13.23;4.55;;;8.80;82.00;;;;;;4951537;29;20427;-73
2022/06/21 02:36:01;;;;;;;9.40;4.40;;;8.80;82.10;;;;;;4954030;28;20058;-73
2022/06/21 02:38:35;;;;;;;8.07;4.13;;;8.70;82.20;;;;;;4947461;29;20047;-73
2022/06/21 02:41:12;;;;;;;11.70;5.07;;;8.80;82.30;;;;;;4939350;29;20071;-73
2022/06/21 02:43:46;;;;;;;12.07;4.32;;;8.80;82.50;;;;;;4951866;29;20426;-73
2022/06/21 02:46:22;;;;;;;12.57;4.35;;;8.80;82.50;;;;;;4952014;29;20047;-73
2022/06/21 02:48:55;;;;;;;10.93;4.45;;;8.80;82.50;;;;;;4943933;28;20055;-73
2022/06/21 02:51:31;;;;;;;12.10;4.53;;;8.80;82.50;;;;;;4954345;29;20059;-73
2022/06/21 02:54:22;;;;;;;13.63;3.53;;;8.80;82.60;;;;;;4948039;29;20043;-73
2022/06/21 02:57:02;;;;;;;9.02;4.47;;;8.80;82.50;;;;;;4942870;29;20412;-73
2022/06/21 02:59:34;;;;;;;9.52;3.65;;;8.80;82.70;;;;;;4956308;29;20044;-73
2022/06/21 03:02:16;;;;;;;7.25;3.17;;;8.70;82.60;;;;;;4954473;29;20051;-73
2022/06/21 03:04:50;;;;;;;6.43;3.40;;;8.70;82.70;;;;;;4953775;29;20050;-73
2022/06/21 03:07:23;;;;;;;9.88;3.47;;;8.70;82.70;;;;;;4943747;29;20059;-73
2022/06/21 03:09:53;;;;;;;16.77;3.85;;;8.70;82.80;;;;;;4953607;29;20046;-73
2022/06/21 03:12:24;;;;;;;7.97;3.95;;;8.70;82.70;;;;;;4955368;29;20059;-73
2022/06/21 03:14:58;;;;;;;11.43;3.97;;;8.60;82.80;;;;;;4956737;29;20047;-73
2022/06/21 03:17:38;;;;;;;10.30;4.20;;;8.60;82.90;;;;;;4942321;29;20052;-73
2022/06/21 03:20:14;;;;;;;14.40;4.70;;;8.50;83.00;;;;;;4940292;29;20039;-73
2022/06/21 03:22:44;;;;;;;9.10;4.28;;;8.50;83.10;;;;;;4951023;29;20054;-73
2022/06/21 03:25:26;;;;;;;12.20;3.95;;;8.50;83.20;;;;;;4943247;29;20052;-73
2022/06/21 03:27:57;;;;;;;13.65;4.00;;;8.50;83.30;;;;;;4940385;29;20043;-73
2022/06/21 03:30:32;;;;;;;10.50;3.90;;;8.40;83.30;;;;;;4949398;29;20127;-73
2022/06/21 03:33:03;;;;;;;6.80;3.50;;;8.40;83.40;;;;;;4952554;29;20055;-73
2022/06/21 03:35:34;;;;;;;6.63;4.05;;;8.40;83.40;;;;;;4950479;29;20066;-73
2022/06/21 03:38:02;;;;;;;9.02;4.05;;;8.40;83.40;;;;;;4946005;29;20059;-73
2022/06/21 03:43:41;;;;;;;11.25;4.97;;;8.40;83.50;;;;;;4952971;29;20055;-73
2022/06/21 03:46:15;;;;;;;15.57;5.38;;;8.30;83.70;;;;;;4943956;28;20051;-73
2022/06/21 03:49:02;;;;;;;;;;;8.30;83.60;;;;;;4943968;29;20047;-73
2022/06/21 03:51:39;;;;;;;14.25;4.68;;;8.30;83.70;;;;;;4951916;29;19922;-73
2022/06/21 03:54:28;;;;;;;19.63;5.22;;;8.30;83.60;;;;;;4947820;29;20059;-73
2022/06/21 03:57:21;;;;;;;15.80;5.88;;;8.30;83.70;;;;;;4947689;29;20055;-73
2022/06/21 03:59:57;;;;;;;15.63;4.70;;;8.30;83.70;;;;;;4956309;28;20052;-73
2022/06/21 04:02:49;;;;;;;12.10;4.38;;;8.20;83.80;;;;;;4951688;29;20054;-73
2022/06/21 04:05:31;;;;;;;15.25;4.95;;;8.30;84.10;;;;;;4949001;29;20533;-73
2022/06/21 04:08:13;;;;;;;8.13;4.22;;;8.30;84.10;;;;;;4942082;29;20070;-73
2022/06/21 04:11:09;;;;;;;11.55;4.70;;;8.20;84.10;;;;;;4936585;29;20066;-73
2022/06/21 04:13:46;;;;;;;6.68;4.18;;;8.20;84.30;;;;;;4927807;29;20059;-73
2022/06/21 04:16:31;;;;;;;17.52;4.47;;;8.20;84.20;;;;;;4943731;29;20055;-73
2022/06/21 04:19:19;;;;;;;10.75;5.20;;;8.20;84.40;;;;;;4936270;29;20054;-73
2022/06/21 04:21:55;;;;;;;9.38;4.15;;;8.20;84.40;;;;;;4939635;29;20054;-73
2022/06/21 04:24:46;;;;;;;14.48;4.72;;;8.20;84.50;;;;;;4940832;29;20051;-73
2022/06/21 04:27:35;;;;;;;10.77;4.45;;;8.20;84.60;;;;;;4949299;29;20051;-73
2022/06/21 04:30:11;;;;;;;8.05;4.40;;;8.20;84.50;;;;;;4936611;29;20048;-73
2022/06/21 04:32:50;;;;;;;9.43;4.50;;;8.30;84.50;;;;;;4947525;29;20382;-73
2022/06/21 04:35:25;;;;;;;8.52;4.47;;;8.30;84.60;;;;;;4950888;29;20051;-73
2022/06/21 04:38:01;;;;;;;10.48;4.40;;;8.40;84.50;;;;;;4949784;29;20047;-73
2022/06/21 04:40:46;;;;;;;11.57;4.28;;;8.40;84.50;;;;;;4951706;29;20051;-73
2022/06/21 04:43:45;;;;;;;11.82;4.05;;;8.40;84.50;;;;;;4949462;28;20050;-73
2022/06/21 04:46:24;;;;;;;7.20;3.85;;;8.60;84.60;;;;;;4941882;29;20058;-73
2022/06/21 04:48:57;;;;;;;10.75;3.78;;;8.70;84.40;;;;;;4951998;29;20052;-73
2022/06/21 04:51:38;;;;;;;6.97;3.63;;;8.80;84.20;;;;;;4951529;29;20047;-73
2022/06/21 04:54:23;;;;;;;12.18;4.15;;;8.80;84.20;;;;;;4948913;29;20370;-73
2022/06/21 04:57:05;;;;;;;7.60;3.75;;;8.90;84.10;;;;;;4951535;29;20054;-73
2022/06/21 04:59:55;;;;;;;7.18;3.55;;;9.10;83.90;;;;;;4963636;28;20516;-73
2022/06/21 05:02:25;;;;;;;6.95;3.67;;;9.20;83.80;;;;;;4945913;29;20066;-73
2022/06/21 05:05:04;;;;;;;10.25;4.30;;;9.30;83.70;;;;;;4952262;29;20051;-73
2022/06/21 05:07:44;;;;;;;7.95;4.00;;;9.50;83.50;;;;;;4945648;29;20055;-73
2022/06/21 05:10:18;;;;;;;7.53;4.28;;;9.60;83.30;;;;;;4943475;29;20047;-74
2022/06/21 05:12:48;;;;;;;8.40;4.28;;;9.70;83.20;;;;;;4948715;29;20058;-72
2022/06/21 05:15:20;;;;;;;8.63;4.25;;;9.70;83.10;;;;;;4952480;29;20039;-72
2022/06/21 05:17:54;;;;;;;7.25;3.90;;;9.80;83.00;;;;;;4953148;29;20039;-73
2022/06/21 05:20:27;;;;;;;10.40;4.45;;;9.80;82.90;;;;;;4953606;29;20833;-73
2022/06/21 05:22:58;;;;;;;6.18;3.92;;;9.90;82.80;;;;;;4947445;28;20059;-74
2022/06/21 05:25:35;;;;;;;12.52;4.25;;;10.00;82.70;;;;;;4949442;29;20493;-74
2022/06/21 05:28:21;;;;;;;12.40;4.90;;;10.10;82.60;;;;;;4946142;29;20055;-71
2022/06/21 05:30:54;;;;;;;13.40;4.70;;;10.10;82.50;;;;;;4951584;29;20061;-73
2022/06/21 05:33:28;;;;;;;18.65;6.10;;;10.20;82.50;;;;;;4948283;29;20051;-74
2022/06/21 05:35:56;;;;;;;9.63;4.40;;;10.30;82.40;;;;;;4952064;29;20413;-73
2022/06/21 05:38:28;;;;;;;9.68;4.57;;;10.40;82.20;;;;;;4950981;29;20054;-75
2022/06/21 05:40:59;;;;;;;8.13;4.20;;;10.50;82.10;;;;;;4949516;29;20051;-74
2022/06/21 05:43:38;;;;;;;10.00;4.85;;;10.70;81.90;;;;;;4947401;29;20070;-74
2022/06/21 05:46:14;;;;;;;10.20;4.82;;;10.70;81.70;;;;;;4945404;28;20501;-75
2022/06/21 05:48:44;;;;;;;10.85;4.43;;;10.80;81.60;;;;;;4947300;29;20450;-73
2022/06/21 05:51:21;;;;;;;7.82;4.13;;;10.90;81.50;;;;;;4950027;29;20048;-73
2022/06/21 05:53:53;;;;;;;12.45;4.65;;;11.10;81.30;;;;;;4942951;29;20052;-74
2022/06/21 05:56:24;;;;;;;9.48;4.22;;;11.30;81.10;;;;;;4949209;29;20039;-77
2022/06/21 05:59:01;;;;;;;9.85;4.80;;;11.50;80.80;;;;;;4941465;29;20051;-74
2022/06/21 06:01:41;;;;;;;12.32;4.68;;;11.70;80.50;;;;;;4944355;29;20070;-73
2022/06/21 06:04:15;;;;;;;7.57;4.53;;;11.90;80.00;;;;;;4948289;29;20043;-73
2022/06/21 06:06:46;;;;;;;11.40;4.75;;;12.10;79.60;;;;;;4950594;29;20051;-74
2022/06/21 06:09:21;;;;;;;10.82;5.22;;;12.30;79.10;;;;;;4947739;29;20059;-73
2022/06/21 06:12:00;;;;;;;14.00;4.72;;;12.40;78.80;;;;;;4952314;28;20048;-74
2022/06/21 06:14:43;;;;;;;7.72;4.40;;;12.70;78.30;;;;;;4956306;28;20669;-74
2022/06/21 06:17:20;;;;;;;13.02;4.72;;;12.90;77.70;;;;;;4953794;29;20059;-72
2022/06/21 06:19:59;;;;;;;15.93;5.00;;;13.10;77.10;;;;;;4947177;29;20054;-73
2022/06/21 06:22:44;;;;;;;9.88;4.70;;;13.40;76.50;;;;;;4950154;29;20062;-73
2022/06/21 06:25:34;;;;;;;9.38;4.40;;;13.60;76.00;;;;;;4938522;29;20039;-73
2022/06/21 06:28:11;;;;;;;9.65;3.90;;;13.80;75.30;;;;;;4946847;29;20078;-72
2022/06/21 06:30:57;;;;;;;14.13;5.30;;;13.90;74.80;;;;;;4950799;29;20097;-73
2022/06/21 06:33:29;;;;;;;8.27;4.38;;;14.10;74.40;;;;;;4953621;29;20071;-72
2022/06/21 06:36:01;;;;;;;8.95;3.58;;;14.10;74.10;;;;;;4928178;29;20047;-73
2022/06/21 06:38:29;;;;;;;8.02;3.50;;;14.30;73.70;;;;;;4935369;29;20047;-73
2022/06/21 06:41:05;;;;;;;11.13;3.55;;;14.30;73.30;;;;;;4956964;29;20063;-73
2022/06/21 06:43:40;;;;;;;9.35;3.10;;;14.50;73.00;;;;;;4950296;29;20129;-73
2022/06/21 06:46:15;;;;;;;8.63;3.60;;;14.60;72.70;;;;;;4952022;29;20155;-73
2022/06/21 06:48:45;;;;;;;6.07;2.70;;;14.70;72.30;;;;;;4953175;28;21851;-73
2022/06/21 06:51:16;;;;;;;6.47;2.17;;;14.70;71.70;;;;;;4948852;29;20047;-73
2022/06/21 06:53:50;;;;;;;4.82;2.03;;;14.80;71.20;;;;;;4951332;29;20051;-73
2022/06/21 06:56:26;;;;;;;8.10;2.90;;;14.80;70.80;;;;;;4948221;29;20048;-73
2022/06/21 06:59:01;;;;;;;7.63;2.70;;;14.90;70.40;;;;;;4956910;29;20063;-73
2022/06/21 07:01:50;;;;;;;7.82;2.60;;;15.00;70.00;;;;;;4951239;29;20047;-73
2022/06/21 07:04:21;;;;;;;6.20;2.40;;;15.00;69.60;;;;;;4954499;29;20058;-73
2022/06/21 07:07:04;;;;;;;8.27;2.65;;;15.10;69.40;;;;;;4953893;29;20433;-73
2022/06/21 07:09:45;;;;;;;5.00;2.43;;;15.30;69.00;;;;;;4946669;29;20051;-73
2022/06/21 07:12:27;;;;;;;4.75;2.20;;;15.30;68.40;;;;;;4947149;29;20433;-73
2022/06/21 07:14:57;;;;;;;6.32;2.80;;;15.40;68.20;;;;;;4950934;29;20066;-73
2022/06/21 07:17:42;;;;;;;8.98;2.20;;;15.50;67.80;;;;;;4942609;29;20489;-74
2022/06/21 07:20:23;;;;;;;6.32;2.30;;;15.60;67.60;;;;;;4952754;29;20062;-74
2022/06/21 07:22:55;;;;;;;6.32;2.40;;;15.60;67.50;;;;;;4953370;29;20043;-73
2022/06/21 07:25:29;;;;;;;5.85;2.47;;;15.70;67.50;;;;;;4954990;29;20047;-72
2022/06/21 07:28:02;;;;;;;7.07;2.25;;;15.70;67.30;;;;;;4944230;29;20047;-72
2022/06/21 07:30:39;;;;;;;4.03;2.53;;;15.80;67.00;;;;;;4954372;29;20512;-72
2022/06/21 07:33:24;;;;;;;13.38;2.72;;;15.80;66.60;;;;;;4944560;29;20054;-73
2022/06/21 07:35:59;;;;;;;7.75;2.30;;;15.90;66.30;;;;;;4925755;29;20058;-73
2022/06/21 07:38:50;;;;;;;10.73;2.97;;;15.90;65.90;;;;;;4949852;29;20039;-73
2022/06/21 07:41:25;;;;;;;7.38;2.33;;;16.00;65.60;;;;;;4954335;29;20066;-73
2022/06/21 07:43:58;;;;;;;7.50;2.70;;;16.10;65.10;;;;;;4946245;29;20051;-72
2022/06/21 07:46:47;;;;;;;5.60;1.92;;;16.20;65.10;;;;;;4953096;29;20047;-72
2022/06/21 07:49:41;;;;;;;6.53;1.70;;;16.30;63.40;;;;;;4951489;29;20051;-73
2022/06/21 07:52:17;;;;;;;4.05;1.70;;;16.30;62.70;;;;;;4942819;29;20055;-72
2022/06/21 07:55:00;;;;;;;8.45;2.03;;;16.40;62.00;;;;;;4940404;29;20513;-73
2022/06/21 07:57:42;;;;;;;6.03;1.80;;;16.50;61.80;;;;;;4939716;29;20047;-72
2022/06/21 08:00:18;;;;;;;3.50;1.65;;;16.70;62.00;;;;;;4945927;29;20055;-73
2022/06/21 10:39:09;;;;;;;1.67;0.60;;;22.50;34.10;;;;;;5015410;23;20074;-79
2022/06/21 10:45:15;;;;;;;6.53;0.80;;;22.70;34.30;;;;;;4840045;29;20478;-79
2022/06/21 10:48:01;;;;;;;1.65;0.80;;;22.90;35.30;;;;;;4852157;29;20058;-78
2022/06/21 10:50:41;;;;;;;4.10;0.75;;;23.20;35.00;;;;;;4844730;29;20046;-79
2022/06/21 10:53:27;;;;;;;2.25;1.10;;;23.30;34.90;;;;;;4842108;29;20428;-79
2022/06/21 11:02:59;;;;;;;2.15;0.80;;;23.50;34.10;;;;;;4855510;29;20050;-79
2022/06/21 11:05:51;;;;;;;3.40;0.90;;;23.60;34.20;;;;;;4852177;29;20050;-80
2022/06/21 11:08:29;;;;;;;2.80;0.93;;;23.70;34.00;;;;;;4848241;29;20037;-81
2022/06/21 11:11:30;;;;;;;3.53;0.90;;;24.00;34.60;;;;;;4877283;29;20061;-80
2022/06/21 11:14:05;;;;;;;3.28;0.77;;;24.30;34.20;;;;;;4862663;29;20046;-80
2022/06/21 11:16:42;;;;;;;5.38;0.93;;;24.70;34.20;;;;;;4866057;29;20045;-80
2022/06/21 11:19:14;;;;;;;5.25;0.90;;;25.10;33.80;;;;;;4862351;29;20057;-80
2022/06/21 11:21:58;;;;;;;2.77;0.83;;;25.40;33.40;;;;;;4862795;29;20064;-80
2022/06/21 11:24:34;;;;;;;1.00;0.70;;;25.60;32.30;;;;;;4861412;29;20057;-80
2022/06/21 11:27:30;;;;;;;9.75;0.98;;;25.80;32.60;;;;;;4859625;29;20056;-80
2022/06/21 11:30:00;;;;;;;1.27;0.75;;;26.00;32.60;;;;;;4862248;29;20061;-80
2022/06/21 11:32:56;;;;;;;2.72;0.90;;;26.10;31.40;;;;;;4862477;29;20058;-80
2022/06/21 11:36:02;;;;;;;6.15;1.00;;;25.90;30.90;;;;;;4842008;29;20058;-79
2022/06/21 11:38:55;;;;;;;5.20;0.98;;;25.80;30.80;;;;;;4855934;29;20506;-79
2022/06/21 11:42:08;;;;;;;1.67;0.70;;;25.80;31.30;;;;;;4862373;29;20045;-79
2022/06/21 11:44:42;;;;;;;2.13;0.90;;;25.90;30.30;;;;;;4862078;29;20057;-79
2022/06/21 11:47:12;;;;;;;2.17;0.90;;;26.00;30.70;;;;;;4860185;29;20052;-79
2022/06/21 11:49:59;;;;;;;3.97;1.15;;;25.90;29.80;;;;;;4859038;29;20204;-79
2022/06/21 11:53:15;;;;;;;3.22;1.13;;;25.80;29.50;;;;;;4859114;29;20056;-79
2022/06/21 11:55:58;;;;;;;6.28;1.10;;;25.70;29.50;;;;;;4856173;29;20061;-80
2022/06/21 11:58:36;;;;;;;1.98;0.98;;;25.60;29.20;;;;;;4859303;29;20060;-79
2022/06/21 12:01:25;;;;;;;2.90;1.10;;;25.60;29.40;;;;;;4860322;29;20072;-80
2022/06/21 12:04:02;;;;;;;2.15;0.85;;;25.70;30.00;;;;;;4860147;29;20052;-79
2022/06/21 12:06:55;;;;;;;2.72;1.05;;;25.80;30.00;;;;;;4859597;29;20407;-79
2022/06/21 12:10:02;;;;;;;1.58;0.70;;;26.00;29.70;;;;;;4864061;29;20045;-80
2022/06/21 12:12:44;;;;;;;2.08;1.10;;;26.30;29.60;;;;;;4859596;29;20054;-75
2022/06/21 12:15:39;;;;;;;2.42;0.80;;;26.40;28.80;;;;;;4860873;29;20497;-77
2022/06/21 12:18:16;;;;;;;3.33;1.30;;;26.40;28.50;;;;;;4854455;29;20062;-78
2022/06/21 12:21:03;;;;;;;2.47;1.00;;;26.40;28.50;;;;;;4858321;29;20071;-77
2022/06/21 12:23:44;;;;;;;6.28;1.25;;;26.30;29.10;;;;;;4843760;29;20112;-78
2022/06/21 12:26:16;;;;;;;3.67;1.50;;;26.50;29.50;;;;;;4843027;29;20487;-78
2022/06/21 12:28:44;;;;;;;3.15;1.10;;;26.70;29.20;;;;;;4856549;29;20056;-78
2022/06/21 12:31:37;;;;;;;2.63;0.90;;;26.90;28.80;;;;;;4859384;29;20426;-79
2022/06/21 12:34:42;;;;;;;3.28;1.20;;;27.10;28.40;;;;;;4859952;29;20053;-78
2022/06/21 12:37:20;;;;;;;3.47;1.17;;;27.10;28.00;;;;;;4857040;29;20054;-78
2022/06/21 12:40:18;;;;;;;2.75;1.25;;;27.30;28.60;;;;;;4858212;29;20049;-79
2022/06/21 12:43:33;;;;;;;3.35;1.20;;;27.50;29.00;;;;;;4843765;29;20503;-78
2022/06/21 12:46:14;;;;;;;3.33;1.00;;;27.90;29.70;;;;;;4829499;29;20073;-78
2022/06/21 12:49:20;;;;;;;5.57;1.50;;;28.40;29.10;;;;;;4838014;29;20054;-78
2022/06/21 12:52:15;;;;;;;6.38;1.30;;;28.80;29.10;;;;;;4788459;29;20066;-78
2022/06/21 12:55:12;;;;;;;8.23;0.98;;;29.10;28.00;;;;;;4785982;30;20063;-78
2022/06/21 12:58:08;;;;;;;6.35;1.25;;;29.30;27.70;;;;;;4785723;30;20056;-78
2022/06/21 13:00:51;;;;;;;3.90;1.30;;;29.30;27.50;;;;;;4784444;30;20055;-78
2022/06/21 13:03:34;;;;;;;7.28;1.20;;;29.50;27.20;;;;;;4785810;30;20063;-78
2022/06/21 13:06:11;;;;;;;3.10;1.15;;;29.60;26.60;;;;;;4785683;30;20058;-78
2022/06/21 13:08:57;;;;;;;3.13;1.25;;;29.80;27.00;;;;;;4784948;30;20047;-79
2022/06/21 13:11:30;;;;;;;2.28;1.08;;;30.30;26.90;;;;;;4786799;30;20529;-79
2022/06/21 13:14:31;;;;;;;2.47;1.17;;;30.80;27.20;;;;;;4787830;30;20104;-79
2022/06/21 13:17:14;;;;;;;7.32;1.23;;;31.00;26.50;;;;;;4796890;29;20055;-79
2022/06/21 13:19:44;;;;;;;4.93;1.13;;;31.30;26.60;;;;;;4810012;29;20054;-79
2022/06/21 13:22:49;;;;;;;2.63;1.10;;;31.60;26.20;;;;;;4815113;29;20050;-79
2022/06/21 13:25:39;;;;;;;4.90;1.08;;;31.80;25.50;;;;;;4865649;29;20042;-79
2022/06/21 13:28:36;;;;;;;4.20;1.30;;;31.90;24.70;;;;;;4844360;29;20076;-79
2022/06/21 13:31:28;;;;;;;4.25;1.05;;;32.10;24.60;;;;;;4854859;29;20050;-79
2022/06/21 13:34:00;;;;;;;5.85;1.27;;;32.30;24.10;;;;;;4803414;29;20085;-79
2022/06/21 13:36:33;;;;;;;2.97;1.33;;;32.80;24.30;;;;;;4803114;29;20058;-79
2022/06/21 13:39:28;;;;;;;3.42;1.10;;;33.00;24.00;;;;;;4801621;29;20062;-79
2022/06/21 13:45:15;;;;;;;4.72;1.92;;;33.20;23.40;;;;;;4802718;29;20058;-79
2022/06/21 13:48:16;;;;;;;5.70;1.90;;;33.30;24.10;;;;;;4793647;29;20066;-80
2022/06/21 13:50:55;;;;;;;3.83;1.40;;;33.30;24.10;;;;;;4778790;29;20059;-79
2022/06/21 13:54:05;;;;;;;3.53;1.30;;;33.20;23.80;;;;;;4788690;29;20066;-79
2022/06/21 13:56:51;;;;;;;4.20;1.60;;;33.30;23.60;;;;;;4777513;29;20058;-79
2022/06/21 13:59:31;;;;;;;4.60;1.45;;;33.50;23.80;;;;;;4802477;29;20058;-79
2022/06/21 14:02:16;;;;;;;6.25;1.65;;;33.80;23.80;;;;;;4787564;29;20549;-79
2022/06/21 14:04:58;;;;;;;3.75;1.50;;;34.20;24.20;;;;;;4798128;29;20536;-79
2022/06/21 14:07:57;;;;;;;6.20;1.65;;;34.30;23.50;;;;;;4796390;29;20055;-79
2022/06/21 14:10:43;;;;;;;13.65;2.00;;;34.30;22.70;;;;;;4799077;29;20407;-78
2022/06/21 14:13:23;;;;;;;5.40;1.80;;;33.80;23.00;;;;;;4853109;29;20076;-78
2022/06/21 14:16:04;;;;;;;5.60;2.00;;;33.20;23.80;;;;;;4858934;29;20045;-79
2022/06/21 14:18:54;;;;;;;16.90;2.42;;;32.60;24.30;;;;;;4835699;29;20420;-79
2022/06/21 14:21:40;;;;;;;5.57;1.85;;;32.20;25.00;;;;;;4859842;29;20072;-76
2022/06/21 14:24:26;;;;;;;6.20;2.20;;;32.30;25.10;;;;;;4859519;29;20049;-76
2022/06/21 14:27:17;;;;;;;7.30;2.03;;;32.50;24.90;;;;;;4859770;29;20057;-76
2022/06/21 14:30:00;;;;;;;8.38;1.80;;;32.90;24.60;;;;;;4858670;29;20058;-75
2022/06/21 14:32:53;;;;;;;9.18;2.05;;;33.20;24.30;;;;;;4862773;29;20058;-74
2022/06/21 14:35:26;;;;;;;5.80;1.60;;;33.40;24.10;;;;;;4855904;29;20062;-77
2022/06/21 14:38:19;;;;;;;5.25;2.30;;;33.60;24.20;;;;;;4845317;29;20069;-78
2022/06/21 14:41:10;;;;;;;4.60;1.58;;;33.70;23.60;;;;;;4844979;29;20061;-77
2022/06/21 14:43:47;;;;;;;4.72;1.55;;;33.40;23.50;;;;;;4862420;29;20064;-77
2022/06/21 14:46:51;;;;;;;6.20;1.70;;;32.90;23.50;;;;;;4845841;29;20490;-78
2022/06/21 14:50:02;;;;;;;8.15;1.77;;;32.60;23.50;;;;;;4855954;29;20065;-79
2022/06/21 14:52:39;;;;;;;6.85;1.48;;;32.10;23.60;;;;;;4851904;29;20402;-78
2022/06/21 14:55:16;;;;;;;4.55;1.52;;;32.00;24.00;;;;;;4862868;29;20049;-76
2022/06/21 14:58:02;;;;;;;6.22;1.70;;;32.40;24.20;;;;;;4861974;29;20057;-79
2022/06/21 15:00:55;;;;;;;3.70;1.50;;;32.90;23.60;;;;;;4859969;29;20044;-78
2022/06/21 15:03:52;;;;;;;4.28;1.40;;;33.30;23.10;;;;;;4861237;29;20049;-77
2022/06/21 15:06:34;;;;;;;9.00;1.67;;;33.80;22.60;;;;;;4860655;29;20041;-78
2022/06/21 15:09:31;;;;;;;7.05;1.58;;;34.30;21.80;;;;;;4861201;29;20068;-77
2022/06/21 15:12:05;;;;;;;4.20;1.58;;;34.70;21.30;;;;;;4848777;29;20510;-78
2022/06/21 15:14:37;;;;;;;2.50;1.50;;;35.10;21.50;;;;;;4849518;29;20076;-78
2022/06/21 15:17:20;;;;;;;3.45;1.30;;;35.50;21.00;;;;;;4861113;29;20057;-78
2022/06/21 15:19:54;;;;;;;3.65;1.08;;;35.60;19.70;;;;;;4873151;29;20069;-77
2022/06/21 15:22:48;;;;;;;6.03;1.17;;;35.30;19.90;;;;;;4862960;29;20053;-77
2022/06/21 15:25:33;;;;;;;2.88;0.90;;;35.20;19.60;;;;;;4858370;29;20045;-78
2022/06/21 15:28:34;;;;;;;4.75;1.10;;;35.30;19.00;;;;;;4853215;29;20049;-78
2022/06/21 15:31:13;;;;;;;2.55;1.20;;;35.30;19.30;;;;;;4844465;29;20068;-78
2022/06/21 15:33:53;;;;;;;3.65;1.00;;;35.60;19.50;;;;;;4857986;29;20069;-78
2022/06/21 15:36:29;;;;;;;1.70;1.00;;;36.00;18.90;;;;;;4861683;29;20056;-78
2022/06/21 15:39:27;;;;;;;3.92;1.00;;;36.30;18.30;;;;;;4861673;29;20057;-78
2022/06/21 15:42:27;;;;;;;2.60;1.15;;;36.40;17.50;;;;;;4852052;29;20080;-78
2022/06/21 15:45:11;;;;;;;3.25;1.25;;;36.50;17.60;;;;;;4845613;29;20046;-78
2022/06/21 15:50:49;;;;;;;2.85;1.30;;;36.50;17.90;;;;;;4844341;29;20588;-78
2022/06/21 15:53:39;;;;;;;3.63;1.30;;;36.30;18.10;;;;;;4851701;29;20046;-78
2022/06/21 15:56:14;;;;;;;4.32;1.38;;;36.30;18.30;;;;;;4845725;29;20415;-77
2022/06/21 15:59:16;;;;;;;5.05;1.38;;;36.40;18.40;;;;;;4846567;29;20060;-78
2022/06/21 16:02:14;;;;;;;10.07;1.50;;;36.50;18.10;;;;;;4854823;29;20056;-77
2022/06/21 16:04:59;;;;;;;4.97;1.40;;;36.60;18.50;;;;;;4849475;29;20054;-78
2022/06/21 16:07:39;;;;;;;3.17;1.40;;;36.60;18.60;;;;;;4851738;29;20049;-77
2022/06/21 16:10:23;;;;;;;7.25;1.50;;;36.40;18.80;;;;;;4856532;29;20049;-77
2022/06/21 16:12:53;;;;;;;4.97;1.63;;;36.30;19.00;;;;;;4852955;29;20053;-77
2022/06/21 16:15:31;;;;;;;4.50;1.50;;;36.00;19.40;;;;;;4859852;29;20053;-77
2022/06/21 16:18:10;;;;;;;5.65;1.60;;;35.90;19.50;;;;;;4855457;29;20050;-77
2022/06/21 16:20:41;;;;;;;3.50;1.67;;;35.90;19.30;;;;;;4841579;29;20064;-77
2022/06/21 16:23:17;;;;;;;4.35;1.48;;;36.00;19.40;;;;;;4842280;29;20046;-77
2022/06/21 16:26:08;;;;;;;6.50;1.95;;;36.00;19.10;;;;;;4856998;29;20423;-78
2022/06/21 16:28:48;;;;;;;6.60;1.80;;;36.10;18.90;;;;;;4856011;29;20049;-78
2022/06/21 16:34:32;;;;;;;4.80;1.85;;;35.80;19.70;;;;;;4843475;29;20507;-78
2022/06/21 16:37:21;;;;;;;5.47;1.92;;;35.30;20.30;;;;;;4843610;29;20427;-78
2022/06/21 16:40:07;;;;;;;6.00;2.10;;;35.40;20.60;;;;;;4845901;29;20060;-77
2022/06/21 16:42:57;;;;;;;7.93;2.28;;;35.50;20.60;;;;;;4854284;29;20423;-78
2022/06/21 16:45:40;;;;;;;5.45;1.85;;;35.30;20.60;;;;;;4852464;29;20500;-78
2022/06/21 16:48:28;;;;;;;6.38;1.80;;;34.80;21.40;;;;;;4849814;29;20056;-78
2022/06/21 16:51:07;;;;;;;3.67;1.60;;;34.10;22.20;;;;;;4857302;29;20049;-82
2022/06/21 16:53:49;;;;;;;9.82;2.33;;;33.70;23.10;;;;;;4860032;29;20049;-80
2022/06/21 16:56:22;;;;;;;13.32;2.20;;;33.50;23.80;;;;;;4856325;29;20057;-78